Time;durP1;ratioP1;P1;durP2;ratioP2;P2;SDS_P1;SDS_P2;PMS_P1;PMS_P2;Temp;Humidity;BMP_temperature;BMP_pressure;BME280_temperature;BME280_humidity;BME280_pressure;Samples;Min_cycle;Max_cycle;Signal;HPM_P1;HPM_P2
2023/12/04 00:08:11;;;;;;;8.47;5.50;;;;;;;7.61;69.41;100536.34;31078204;28;20064;-76
2023/12/04 00:23:13;;;;;;;9.13;5.53;;;;;;;7.65;70.32;100547.94;31082680;28;20141;-77
2023/12/04 00:38:15;;;;;;;8.83;5.27;;;;;;;7.65;69.42;100580.34;31059309;28;20061;-73
2023/12/04 00:53:17;;;;;;;11.57;5.00;;;;;;;7.74;67.50;100588.88;31020608;28;20058;-73
2023/12/04 01:08:20;;;;;;;11.03;5.53;;;;;;;7.64;67.61;100545.63;31053357;28;20074;-73
2023/12/04 01:23:23;;;;;;;12.30;6.43;;;;;;;7.20;67.59;100552.16;31031132;28;20145;-73
2023/12/04 01:38:25;;;;;;;9.07;5.33;;;;;;;7.33;67.97;100617.38;31096980;28;20118;-75
2023/12/04 01:53:27;;;;;;;11.87;5.63;;;;;;;7.46;67.42;100626.66;31052992;28;20142;-76
2023/12/04 02:08:30;;;;;;;8.17;5.10;;;;;;;7.41;67.87;100602.72;31049680;28;20068;-74
2023/12/04 02:23:32;;;;;;;10.10;5.30;;;;;;;7.37;70.56;100569.53;31017623;28;20049;-75
2023/12/04 02:38:34;;;;;;;10.00;4.93;;;;;;;7.30;70.66;100635.13;31097001;28;20049;-77
2023/12/04 02:53:36;;;;;;;8.17;5.23;;;;;;;7.49;69.36;100686.13;31055382;28;20140;-77
2023/12/04 03:08:38;;;;;;;9.97;5.30;;;;;;;7.24;69.39;100669.06;31051365;28;20412;-76
2023/12/04 03:23:40;;;;;;;9.73;5.60;;;;;;;7.34;67.93;100684.50;31030446;28;20643;-76
2023/12/04 03:38:42;;;;;;;9.77;4.87;;;;;;;7.24;68.10;100685.28;31044523;28;20488;-76
2023/12/04 03:53:44;;;;;;;8.10;5.10;;;;;;;7.09;68.04;100722.22;31017519;28;20077;-77
2023/12/04 04:08:46;;;;;;;9.90;5.20;;;;;;;7.11;67.61;100719.16;31024788;28;20082;-77
2023/12/04 04:23:48;;;;;;;13.43;5.83;;;;;;;7.36;67.66;100746.25;31003362;28;20185;-73
2023/12/04 04:38:50;;;;;;;11.57;4.77;;;;;;;7.53;67.38;100748.25;31044285;28;20174;-73
2023/12/04 04:53:52;;;;;;;10.00;5.57;;;;;;;7.31;66.75;100770.94;31047813;28;20268;-72
2023/12/04 05:08:54;;;;;;;12.13;5.73;;;;;;;6.72;65.07;100783.72;31076015;28;20054;-74
2023/12/04 05:23:56;;;;;;;8.37;4.27;;;;;;;6.62;64.63;100795.19;31062415;28;20179;-78
2023/12/04 05:38:58;;;;;;;11.07;5.67;;;;;;;6.77;64.12;100804.97;31061561;28;20150;-77
2023/12/04 05:54:02;;;;;;;9.47;4.90;;;;;;;6.61;63.85;100815.25;31086006;28;20048;-77
2023/12/04 06:09:05;;;;;;;9.73;4.73;;;;;;;6.61;62.62;100823.34;31050444;28;20062;-77
2023/12/04 06:24:08;;;;;;;9.90;4.93;;;;;;;6.94;62.63;100842.09;31045023;28;20058;-76
2023/12/04 06:39:12;;;;;;;9.97;4.20;;;;;;;6.93;61.76;100854.03;31068015;28;20080;-77
2023/12/04 06:54:14;;;;;;;10.57;5.50;;;;;;;6.93;61.40;100881.03;31053924;28;20491;-78
2023/12/04 07:09:20;;;;;;;8.53;4.67;;;;;;;6.92;61.96;100890.28;31067675;28;20138;-84
2023/12/04 07:24:22;;;;;;;7.80;4.60;;;;;;;6.95;60.45;100899.53;31046132;28;20058;-74
2023/12/04 07:39:26;;;;;;;8.53;4.33;;;;;;;7.14;61.28;100902.78;31061139;28;20136;-77
2023/12/04 07:54:28;;;;;;;8.00;4.27;;;;;;;7.10;60.21;100934.38;31048347;28;20054;-78
2023/12/04 08:09:30;;;;;;;8.07;3.47;;;;;;;7.23;59.71;100942.19;31111734;28;20116;-80
2023/12/04 08:24:32;;;;;;;6.87;3.80;;;;;;;7.22;58.19;100935.25;31092459;28;20096;-78
2023/12/04 08:39:34;;;;;;;9.13;4.20;;;;;;;7.40;59.22;100925.31;31045025;28;20118;-79
2023/12/04 08:54:41;;;;;;;6.87;3.57;;;;;;;7.62;57.32;100927.00;31066473;28;20136;-78
2023/12/04 09:09:44;;;;;;;7.80;4.20;;;;;;;7.42;58.13;100914.91;31072361;28;20042;-76
2023/12/04 09:24:46;;;;;;;10.27;5.07;;;;;;;7.55;58.23;100899.97;31077009;28;20126;-76
2023/12/04 09:39:49;;;;;;;8.57;4.60;;;;;;;7.49;59.11;100912.28;31017692;28;20050;-77
2023/12/04 09:54:51;;;;;;;13.13;5.80;;;;;;;7.30;61.42;100931.44;31050350;28;20061;-76
2023/12/04 10:09:53;;;;;;;14.40;5.80;;;;;;;7.30;62.76;100931.44;31060207;28;20073;-80
2023/12/04 10:24:55;;;;;;;15.23;6.87;;;;;;;7.30;63.40;100923.34;31041011;28;20062;-76
2023/12/04 10:39:57;;;;;;;7.63;4.13;;;;;;;7.19;60.34;100932.13;31049436;28;20046;-76
2023/12/04 10:54:59;;;;;;;10.63;4.40;;;;;;;6.88;59.08;100951.53;31055641;28;20671;-77
2023/12/04 11:10:08;;;;;;;6.60;3.33;;;;;;;6.97;57.45;100957.41;31049984;28;20777;-78
2023/12/04 11:25:17;;;;;;;9.00;4.70;;;;;;;7.10;58.32;100971.41;31066384;28;20483;-77
2023/12/04 11:40:19;;;;;;;5.70;3.43;;;;;;;6.77;58.41;100988.47;31108036;28;20057;-79
2023/12/04 11:55:25;;;;;;;10.00;3.87;;;;;;;6.86;57.73;100972.72;31150945;28;20069;-80
2023/12/04 12:10:28;;;;;;;;;;;;;;;7.09;55.49;100964.44;31075063;28;20381;-79
2023/12/04 12:25:30;;;;;;;8.70;3.03;;;;;;;6.66;56.28;100985.66;31065133;28;20012;-81
2023/12/04 12:40:32;;;;;;;5.40;3.07;;;;;;;6.71;56.02;100992.63;31061292;28;20534;-77
2023/12/04 12:55:38;;;;;;;5.43;3.30;;;;;;;6.80;57.09;101017.41;31012149;28;20092;-76
2023/12/04 13:10:41;;;;;;;5.30;3.57;;;;;;;6.72;58.53;101046.22;31031775;28;20058;-74
2023/12/04 13:25:44;;;;;;;6.40;4.17;;;;;;;6.60;60.39;101056.50;31055469;28;20085;-76
2023/12/04 13:40:59;;;;;;;8.67;4.97;;;;;;;6.44;61.35;101070.19;31114924;28;20049;-73
2023/12/04 14:11:04;;;;;;;6.83;3.33;;;;;;;6.40;57.78;101097.09;31029405;28;20068;-75
2023/12/04 14:26:06;;;;;;;6.03;3.90;;;;;;;6.27;57.87;101103.88;31074190;28;20053;-79
2023/12/04 14:41:11;;;;;;;7.93;3.73;;;;;;;6.07;58.15;101130.16;31057336;28;20057;-77
2023/12/04 15:26:54;;;;;;;5.93;3.90;;;;;;;5.77;59.17;101140.03;31047645;28;20064;-84
2023/12/04 15:41:57;;;;;;;8.27;4.20;;;;;;;5.68;58.94;101161.81;31069555;28;20059;-80
2023/12/04 15:57:00;;;;;;;7.80;4.53;;;;;;;5.74;59.09;101184.66;31085750;28;20053;-85
2023/12/04 16:12:03;;;;;;;7.53;5.10;;;;;;;5.66;59.70;101193.75;31069831;28;20058;-82
2023/12/04 16:27:05;;;;;;;8.17;5.67;;;;;;;5.59;61.18;101190.94;31099693;28;20515;-83
2023/12/04 16:42:08;;;;;;;6.90;4.83;;;;;;;5.64;60.98;101195.25;31090490;28;20053;-79
2023/12/04 16:57:10;;;;;;;4.03;3.50;;;;;;;5.57;57.40;101190.50;31084751;28;20118;-82
2023/12/04 17:12:12;;;;;;;32.27;11.27;;;;;;;5.61;57.78;101190.56;31092748;28;21772;-81
2023/12/04 17:27:16;;;;;;;6.90;4.10;;;;;;;5.58;58.89;101210.91;31078994;28;20054;-84
2023/12/04 17:42:18;;;;;;;5.67;3.83;;;;;;;5.53;58.69;101215.81;31104500;28;20054;-81
2023/12/04 17:57:21;;;;;;;9.73;4.30;;;;;;;5.62;59.67;101251.41;31047352;28;20054;-75
2023/12/04 18:12:23;;;;;;;7.80;4.97;;;;;;;5.47;59.43;101240.34;31036817;28;20153;-76
2023/12/04 18:27:25;;;;;;;6.17;4.10;;;;;;;5.42;59.65;101231.78;31022806;28;20396;-76
2023/12/04 18:42:28;;;;;;;6.20;3.97;;;;;;;5.28;59.59;101242.25;31027965;28;20484;-76
2023/12/04 18:57:30;;;;;;;6.00;4.00;;;;;;;5.27;58.57;101278.41;31033516;28;20140;-75
2023/12/04 19:12:33;;;;;;;6.37;4.30;;;;;;;5.11;59.58;101276.56;31038118;28;20061;-75
2023/12/04 19:27:35;;;;;;;4.20;3.13;;;;;;;5.02;58.02;101300.19;31015532;28;20055;-74
2023/12/04 19:42:38;;;;;;;11.40;5.10;;;;;;;4.88;58.76;101321.41;31053292;28;20101;-74
2023/12/04 19:57:40;;;;;;;7.97;3.00;;;;;;;5.07;59.25;101329.53;31027704;28;20058;-74
2023/12/04 20:12:42;;;;;;;6.10;3.40;;;;;;;5.17;59.39;101332.81;31082807;28;20054;-73
2023/12/04 20:27:44;;;;;;;5.47;3.20;;;;;;;4.99;58.44;101329.69;31064588;28;20050;-74
2023/12/04 20:42:46;;;;;;;6.67;3.80;;;;;;;5.07;59.12;101340.28;31088371;28;20484;-74
2023/12/04 20:57:48;;;;;;;6.20;4.07;;;;;;;5.05;58.21;101337.16;31071094;28;20046;-75
2023/12/04 21:12:51;;;;;;;30.53;13.53;;;;;;;4.89;58.22;101325.66;31071842;28;20082;-73
2023/12/04 21:27:53;;;;;;;6.03;3.47;;;;;;;5.29;57.39;101336.16;31030441;28;20062;-77
2023/12/04 21:42:55;;;;;;;3.87;3.10;;;;;;;5.33;57.09;101338.91;31049488;28;20042;-74
2023/12/04 21:57:57;;;;;;;5.93;3.60;;;;;;;5.29;57.25;101340.75;31063428;28;20058;-74
2023/12/04 22:13:00;;;;;;;5.53;3.47;;;;;;;5.17;57.06;101343.56;31094592;28;20055;-72
2023/12/04 22:28:02;;;;;;;8.77;3.43;;;;;;;5.46;58.04;101332.25;31030414;28;20084;-73
2023/12/04 22:43:04;;;;;;;6.07;4.23;;;;;;;5.41;58.36;101332.56;31053102;28;20092;-73
2023/12/04 22:58:06;;;;;;;4.97;3.47;;;;;;;5.49;57.78;101328.88;31030102;28;20054;-75
2023/12/04 23:13:09;;;;;;;7.37;3.90;;;;;;;5.62;57.38;101333.00;31103709;28;20073;-74
2023/12/04 23:28:11;;;;;;;9.40;4.77;;;;;;;5.70;56.77;101356.22;31058691;28;20622;-73
2023/12/04 23:43:13;;;;;;;13.20;4.17;;;;;;;5.66;58.04;101350.00;31020981;28;20422;-74
2023/12/04 23:58:16;;;;;;;17.23;9.73;;;;;;;5.62;58.52;101376.09;31048965;28;20061;-73
